createdAt,value
2019-04-04T00:01:38.299Z,16.53
2019-04-04T00:06:40.277Z,15.20
2019-04-04T00:11:42.187Z,16.90
2019-04-04T00:16:44.037Z,16.83
2019-04-04T00:21:46.097Z,15.03
2019-04-04T00:26:48.326Z,15.50
2019-04-04T00:31:50.473Z,16.03
2019-04-04T00:36:52.404Z,16.53
2019-04-04T00:41:54.395Z,16.60
2019-04-04T00:46:56.304Z,15.97
2019-04-04T00:51:58.152Z,16.83
2019-04-04T00:57:00.806Z,16.00
2019-04-04T01:02:02.875Z,16.23
2019-04-04T01:07:05.072Z,16.20
2019-04-04T01:12:07.949Z,17.83
2019-04-04T01:17:10.172Z,18.03
2019-04-04T01:22:12.666Z,16.93
2019-04-04T01:27:14.880Z,17.87
2019-04-04T01:32:17.616Z,17.10
2019-04-04T01:37:19.644Z,16.90
2019-04-04T01:42:21.484Z,17.83
2019-04-04T01:47:23.685Z,17.17
2019-04-04T01:52:28.706Z,17.53
2019-04-04T01:57:31.654Z,17.73
2019-04-04T02:02:33.647Z,16.70
2019-04-04T02:07:35.572Z,17.43
2019-04-04T02:12:39.202Z,15.90
2019-04-04T02:17:41.496Z,18.30
2019-04-04T02:22:44.298Z,18.30
2019-04-04T02:27:46.797Z,18.13
2019-04-04T02:32:48.737Z,17.80
2019-04-04T02:37:54.958Z,18.00
2019-04-04T02:42:55.534Z,18.57
2019-04-04T02:47:57.627Z,18.40
2019-04-04T02:52:59.576Z,18.00
2019-04-04T02:58:02.016Z,18.23
2019-04-04T03:03:08.285Z,17.63
2019-04-04T03:08:09.185Z,18.57
2019-04-04T03:13:11.760Z,18.60
2019-04-04T03:18:13.612Z,18.63
2019-04-04T03:23:15.827Z,17.87
2019-04-04T03:28:18.216Z,18.97
2019-04-04T03:33:20.697Z,19.00
2019-04-04T03:38:22.605Z,18.67
2019-04-04T03:43:25.960Z,19.20
2019-04-04T03:48:27.813Z,18.13
2019-04-04T03:53:29.764Z,18.27
2019-04-04T03:58:32.188Z,19.20
2019-04-04T04:03:36.161Z,18.40
2019-04-04T04:08:38.645Z,18.53
2019-04-04T04:13:40.558Z,19.70
2019-04-04T04:18:42.569Z,19.03
2019-04-04T04:23:44.501Z,18.67
2019-04-04T04:28:49.720Z,19.13
2019-04-04T04:33:52.157Z,18.57
2019-04-04T04:38:58.879Z,17.77
2019-04-04T04:43:58.532Z,18.33
2019-04-04T04:49:00.620Z,18.57
2019-04-04T04:54:04.684Z,18.50
2019-04-04T04:59:07.280Z,18.80
2019-04-04T05:04:09.423Z,18.47
2019-04-04T05:09:13.666Z,18.93
2019-04-04T05:14:15.056Z,18.50
2019-04-04T05:19:18.886Z,18.50
2019-04-04T05:24:20.769Z,18.97
2019-04-04T05:29:23.024Z,18.60
2019-04-04T05:34:25.856Z,18.30
2019-04-04T05:39:28.236Z,18.50
2019-04-04T05:44:30.844Z,17.93
2019-04-04T05:49:32.915Z,19.03
2019-04-04T05:54:36.987Z,18.10
2019-04-04T05:59:38.968Z,17.53
2019-04-04T06:04:41.491Z,18.90
2019-04-04T06:09:46.283Z,18.37
2019-04-04T06:14:47.723Z,17.87
2019-04-04T06:19:49.721Z,17.57
2019-04-04T06:24:52.344Z,18.43
2019-04-04T06:29:54.236Z,18.40
2019-04-04T06:34:57.330Z,18.43
2019-04-04T06:39:59.610Z,17.97
2019-04-04T06:45:01.546Z,16.30
2019-04-04T06:50:08.037Z,16.57
2019-04-04T06:55:10.106Z,16.17
2019-04-04T07:00:15.317Z,15.83
2019-04-04T07:05:17.031Z,16.10
2019-04-04T07:10:21.879Z,16.47
2019-04-04T07:15:23.417Z,15.60
2019-04-04T07:20:28.222Z,15.43
2019-04-04T07:25:29.414Z,15.47
2019-04-04T07:30:31.524Z,14.83
2019-04-04T07:35:33.573Z,14.70
2019-04-04T07:40:37.086Z,14.77
2019-04-04T07:45:40.231Z,14.33
2019-04-04T07:50:42.191Z,14.27
2019-04-04T07:55:45.050Z,14.17
2019-04-04T08:00:47.295Z,14.07
2019-04-04T08:05:49.488Z,14.00
2019-04-04T08:10:52.188Z,14.03
2019-04-04T08:15:54.105Z,13.93
2019-04-04T08:20:56.673Z,15.03
2019-04-04T08:25:58.937Z,13.37
2019-04-04T08:31:01.266Z,14.07
2019-04-04T08:36:06.223Z,13.73
2019-04-04T08:41:07.433Z,13.93
2019-04-04T08:46:09.742Z,13.40
2019-04-04T08:51:11.736Z,13.47
2019-04-04T08:56:13.992Z,13.07
2019-04-04T09:01:15.946Z,13.53
2019-04-04T09:06:18.004Z,13.70
2019-04-04T09:11:21.178Z,13.20
2019-04-04T09:16:23.284Z,13.23
2019-04-04T09:21:25.119Z,12.17
2019-04-04T09:26:28.044Z,12.67
2019-04-04T09:31:30.053Z,12.73
2019-04-04T09:36:31.965Z,12.47
2019-04-04T09:41:33.937Z,12.13
2019-04-04T09:46:35.881Z,12.00
2019-04-04T09:51:37.756Z,10.90
2019-04-04T09:56:40.006Z,10.73
2019-04-04T10:01:42.708Z,10.67
2019-04-04T10:06:44.993Z,10.47
2019-04-04T10:11:47.064Z,10.97
2019-04-04T10:16:48.928Z,10.60
2019-04-04T10:21:51.150Z,10.43
2019-04-04T10:26:53.217Z,10.60
2019-04-04T10:31:55.550Z,10.87
2019-04-04T10:36:59.271Z,10.47
2019-04-04T10:42:01.534Z,10.60
2019-04-04T10:47:03.785Z,10.00
2019-04-04T10:52:06.600Z,10.07
2019-04-04T10:57:08.802Z,9.40
2019-04-04T11:02:10.894Z,9.40
2019-04-04T11:07:12.861Z,10.00
2019-04-04T11:12:15.032Z,10.00
2019-04-04T11:17:17.237Z,9.80
2019-04-04T11:22:20.241Z,10.07
2019-04-04T11:27:23.324Z,10.27
2019-04-04T11:32:25.909Z,9.27
2019-04-04T11:37:27.829Z,9.37
2019-04-04T11:42:29.921Z,9.03
2019-04-04T11:47:32.495Z,9.00
2019-04-04T11:52:34.839Z,8.50
2019-04-04T11:57:36.802Z,8.30
2019-04-04T12:02:39.324Z,9.07
2019-04-04T12:07:41.543Z,8.23
2019-04-04T12:12:44.017Z,7.63
2019-04-04T12:17:46.930Z,8.30
2019-04-04T12:22:49.492Z,8.10
2019-04-04T12:27:51.898Z,8.67
2019-04-04T12:32:53.911Z,7.40
2019-04-04T12:37:55.817Z,7.87
2019-04-04T12:42:58.754Z,7.20
2019-04-04T12:48:01.373Z,6.60
2019-04-04T12:53:03.625Z,7.20
2019-04-04T12:58:05.585Z,7.33
2019-04-04T13:03:08.025Z,7.33
2019-04-04T13:08:10.404Z,6.77
2019-04-04T13:13:12.322Z,7.43
2019-04-04T13:18:14.168Z,7.10
2019-04-04T13:23:16.936Z,6.83
2019-04-04T13:28:18.807Z,7.03
2019-04-04T13:33:22.648Z,7.20
2019-04-04T13:38:25.057Z,7.60
2019-04-04T13:43:27.211Z,7.17
2019-04-04T13:48:29.092Z,7.03
2019-04-04T13:53:31.513Z,7.10
2019-04-04T13:58:33.439Z,7.13
2019-04-04T14:03:35.747Z,6.93
2019-04-04T14:08:39.479Z,7.17
2019-04-04T14:13:42.189Z,8.43
2019-04-04T14:18:45.260Z,8.70
2019-04-04T14:23:52.120Z,8.47
2019-04-04T14:28:52.631Z,8.93
2019-04-04T14:33:55.108Z,8.30
2019-04-04T14:38:57.016Z,8.40
2019-04-04T14:44:00.684Z,7.50
2019-04-04T14:49:02.823Z,7.30
2019-04-04T14:54:05.200Z,7.53
2019-04-04T14:59:07.473Z,7.70
2019-04-04T15:04:09.615Z,7.13
2019-04-04T15:09:12.246Z,6.77
2019-04-04T15:14:14.113Z,6.60
2019-04-04T15:19:16.088Z,7.30
2019-04-04T15:24:17.960Z,7.30
2019-04-04T15:29:19.929Z,6.93
2019-04-04T15:34:21.836Z,6.47
2019-04-04T15:39:24.219Z,6.93
2019-04-04T15:44:26.469Z,6.87
2019-04-04T15:49:29.156Z,6.40
2019-04-04T15:54:32.108Z,6.57
2019-04-04T15:59:34.824Z,6.43
2019-04-04T16:04:37.337Z,6.60
2019-04-04T16:09:39.296Z,6.33
2019-04-04T16:14:42.141Z,6.63
2019-04-04T16:19:44.121Z,6.87
2019-04-04T16:24:46.105Z,6.77
2019-04-04T16:29:49.489Z,6.27
2019-04-04T16:34:52.711Z,6.57
2019-04-04T16:40:07.919Z,5.73
2019-04-04T16:45:00.022Z,6.57
2019-04-04T16:50:02.995Z,7.57
2019-04-04T16:55:05.804Z,6.77
2019-04-04T17:00:08.427Z,6.90
2019-04-04T17:05:11.397Z,7.20
2019-04-04T17:10:13.727Z,7.23
2019-04-04T17:15:16.372Z,10.97
2019-04-04T17:20:20.611Z,7.97
2019-04-04T17:25:22.083Z,7.93
2019-04-04T17:30:24.361Z,8.10
2019-04-04T17:35:26.804Z,7.53
2019-04-04T17:40:28.766Z,7.63
2019-04-04T17:45:31.353Z,7.50
2019-04-04T17:50:33.612Z,7.80
2019-04-04T17:55:35.650Z,8.63
2019-04-04T18:00:38.287Z,8.03
2019-04-04T18:05:40.681Z,8.13
2019-04-04T18:10:42.591Z,8.00
2019-04-04T18:15:47.270Z,8.40
2019-04-04T18:20:49.523Z,8.50
2019-04-04T18:25:51.791Z,9.90
2019-04-04T18:30:54.073Z,9.20
2019-04-04T18:35:56.810Z,9.30
2019-04-04T18:40:59.143Z,9.80
2019-04-04T18:46:01.265Z,9.30
2019-04-04T18:51:03.295Z,9.50
2019-04-04T18:56:05.294Z,9.53
2019-04-04T19:01:07.425Z,9.73
2019-04-04T19:06:09.416Z,9.50
2019-04-04T19:11:14.113Z,10.10
2019-04-04T19:16:16.995Z,10.10
2019-04-04T19:21:19.202Z,11.10
2019-04-04T19:26:21.149Z,11.10
2019-04-04T19:31:23.296Z,12.67
2019-04-04T19:36:25.964Z,12.13
2019-04-04T19:41:29.061Z,12.30
2019-04-04T19:46:37.035Z,12.20
2019-04-04T19:51:34.851Z,11.77
2019-04-04T19:56:36.800Z,11.30
2019-04-04T20:01:40.148Z,10.07
2019-04-04T20:06:42.346Z,10.93
2019-04-04T20:11:44.951Z,9.90
2019-04-04T20:16:46.909Z,10.80
2019-04-04T20:21:49.715Z,10.23
2019-04-04T20:26:56.212Z,10.53
2019-04-04T20:31:59.280Z,10.27
2019-04-04T20:37:01.133Z,9.60
2019-04-04T20:42:03.152Z,10.40
2019-04-04T20:47:05.345Z,11.00
2019-04-04T20:52:07.264Z,9.97
2019-04-04T20:57:10.182Z,10.20
2019-04-04T21:02:12.745Z,10.77
2019-04-04T21:07:15.314Z,10.17
2019-04-04T21:12:17.192Z,9.63
2019-04-04T21:17:19.075Z,10.17
2019-04-04T21:22:27.394Z,10.47
2019-04-04T21:27:25.904Z,10.03
2019-04-04T21:32:27.817Z,10.67
2019-04-04T21:37:30.447Z,10.63
2019-04-04T21:42:32.403Z,10.83
2019-04-04T21:47:34.267Z,10.77
2019-04-04T21:52:36.120Z,10.70
2019-04-04T21:57:37.941Z,10.50
2019-04-04T22:02:39.741Z,11.40
2019-04-04T22:07:41.592Z,11.53
2019-04-04T22:12:44.182Z,11.60
2019-04-04T22:17:46.861Z,11.33
2019-04-04T22:22:49.209Z,11.70
2019-04-04T22:27:51.239Z,11.67
2019-04-04T22:32:53.266Z,11.27
2019-04-04T22:37:55.557Z,11.27
2019-04-04T22:42:57.477Z,12.60
2019-04-04T22:47:59.325Z,12.40
2019-04-04T22:53:02.369Z,12.57
2019-04-04T22:58:04.309Z,12.17
2019-04-04T23:03:07.187Z,11.63
2019-04-04T23:08:09.147Z,11.73
2019-04-04T23:13:11.085Z,12.33
2019-04-04T23:18:13.040Z,11.53
2019-04-04T23:23:15.296Z,12.20
2019-04-04T23:28:17.504Z,12.07
2019-04-04T23:33:20.456Z,12.03
2019-04-04T23:38:22.581Z,13.63
2019-04-04T23:43:24.556Z,12.53
2019-04-04T23:48:26.813Z,12.77
2019-04-04T23:53:29.045Z,12.07
2019-04-04T23:58:31.294Z,12.77
